Time;durP1;ratioP1;P1;durP2;ratioP2;P2;SDS_P1;SDS_P2;PMS_P1;PMS_P2;Temp;Humidity;BMP_temperature;BMP_pressure;BME280_temperature;BME280_humidity;BME280_pressure;Samples;Min_cycle;Max_cycle;Signal;HPM_P1;HPM_P2
2022/11/23 00:01:47;;;;;;;9.98;7.35;;;8.60;99.90;;;;;;5064242;28;20025;-75
2022/11/23 00:04:13;;;;;;;15.13;7.45;;;8.60;99.90;;;;;;5066659;28;20024;-74
2022/11/23 00:06:39;;;;;;;9.13;7.55;;;8.60;99.90;;;;;;5074109;28;20030;-74
2022/11/23 00:09:05;;;;;;;29.10;6.65;;;8.60;99.90;;;;;;5064103;28;20021;-74
2022/11/23 00:11:33;;;;;;;24.63;19.58;;;8.60;99.90;;;;;;5068424;28;20097;-74
2022/11/23 00:13:59;;;;;;;12.75;8.48;;;8.60;99.90;;;;;;5063028;28;20025;-74
2022/11/23 00:16:27;;;;;;;16.35;13.85;;;8.70;99.90;;;;;;5071031;28;20031;-74
2022/11/23 00:18:55;;;;;;;7.53;6.38;;;8.70;99.90;;;;;;5066631;28;20024;-74
2022/11/23 00:21:22;;;;;;;10.27;6.30;;;8.70;99.90;;;;;;5071181;28;20555;-74
2022/11/23 00:23:49;;;;;;;6.78;5.45;;;8.70;99.90;;;;;;5066129;28;20037;-74
2022/11/23 00:26:15;;;;;;;11.75;5.72;;;8.70;99.90;;;;;;5070248;28;20040;-74
2022/11/23 00:28:42;;;;;;;11.20;6.57;;;8.70;99.90;;;;;;5065640;28;20036;-74
2022/11/23 00:31:09;;;;;;;5.50;4.90;;;8.70;99.90;;;;;;5074392;28;20043;-74
2022/11/23 00:33:35;;;;;;;8.98;7.32;;;8.70;99.90;;;;;;5062202;28;20048;-74
2022/11/23 00:36:11;;;;;;;5.13;4.63;;;8.80;99.90;;;;;;5068830;28;20028;-74
2022/11/23 00:38:38;;;;;;;11.30;4.57;;;8.80;99.90;;;;;;5068900;28;20104;-74
2022/11/23 00:41:07;;;;;;;5.05;4.13;;;8.80;99.90;;;;;;5068321;28;20039;-74
2022/11/23 00:43:33;;;;;;;4.72;3.70;;;8.80;99.90;;;;;;5073166;28;20030;-74
2022/11/23 00:46:08;;;;;;;7.97;4.40;;;8.80;99.90;;;;;;5073804;28;20380;-74
2022/11/23 00:48:34;;;;;;;4.43;3.67;;;8.90;99.90;;;;;;5072324;28;20055;-74
2022/11/23 00:51:04;;;;;;;5.55;3.50;;;8.90;99.90;;;;;;5075472;28;20032;-74
2022/11/23 00:53:30;;;;;;;4.25;3.40;;;8.90;99.90;;;;;;5074436;28;20028;-74
2022/11/23 00:55:57;;;;;;;3.80;3.30;;;8.90;99.90;;;;;;5076494;28;20107;-74
2022/11/23 00:58:23;;;;;;;6.93;4.13;;;9.00;99.90;;;;;;5073548;28;20017;-74
2022/11/23 01:00:49;;;;;;;4.63;3.08;;;9.00;99.90;;;;;;5062941;28;20021;-74
2022/11/23 01:03:16;;;;;;;5.57;3.38;;;9.00;99.90;;;;;;5067129;28;20534;-74
2022/11/23 01:05:42;;;;;;;5.68;3.65;;;9.00;99.90;;;;;;5072253;28;20420;-74
2022/11/23 01:08:08;;;;;;;7.22;3.75;;;9.10;99.90;;;;;;5071022;28;20033;-74
2022/11/23 01:10:34;;;;;;;5.22;3.67;;;9.10;99.90;;;;;;5071800;28;20672;-74
2022/11/23 01:13:00;;;;;;;6.80;3.10;;;9.10;99.90;;;;;;5063211;28;20493;-74
2022/11/23 01:15:26;;;;;;;6.55;3.60;;;9.20;99.90;;;;;;5071890;28;20086;-74
2022/11/23 01:17:52;;;;;;;9.98;3.42;;;9.20;99.90;;;;;;5068942;28;20020;-74
2022/11/23 01:20:17;;;;;;;6.68;4.13;;;9.20;99.90;;;;;;5071834;28;20043;-74
2022/11/23 01:22:43;;;;;;;10.68;3.85;;;9.30;99.90;;;;;;5075643;28;20036;-74
2022/11/23 01:25:09;;;;;;;7.13;3.60;;;9.30;99.90;;;;;;5069142;28;20053;-74
2022/11/23 01:27:35;;;;;;;6.43;3.30;;;9.30;99.90;;;;;;5067961;28;20131;-74
2022/11/23 01:30:01;;;;;;;3.45;3.15;;;9.40;99.90;;;;;;5064475;28;20021;-74
2022/11/23 01:32:26;;;;;;;6.88;3.67;;;9.40;99.90;;;;;;5077381;28;20025;-74
2022/11/23 01:34:52;;;;;;;6.57;2.90;;;9.50;99.90;;;;;;5067185;28;20051;-74
2022/11/23 01:37:18;;;;;;;6.22;3.88;;;9.50;99.90;;;;;;5075851;28;20099;-73
2022/11/23 01:39:44;;;;;;;3.25;2.80;;;9.50;99.90;;;;;;5067501;28;20025;-74
2022/11/23 01:42:09;;;;;;;6.53;3.15;;;9.50;99.90;;;;;;5072369;28;20064;-74
2022/11/23 01:44:38;;;;;;;6.60;3.20;;;9.50;99.90;;;;;;5069851;28;20020;-74
2022/11/23 01:47:08;;;;;;;5.50;3.35;;;9.60;99.90;;;;;;5068580;28;20111;-73
2022/11/23 01:49:41;;;;;;;4.03;2.63;;;9.60;99.90;;;;;;5069052;28;20035;-74
2022/11/23 01:52:21;;;;;;;3.95;3.00;;;9.60;99.90;;;;;;5066497;28;20090;-73
2022/11/23 01:54:53;;;;;;;6.27;3.13;;;9.70;99.90;;;;;;5062551;28;20028;-74
2022/11/23 01:57:30;;;;;;;5.88;2.75;;;9.70;99.90;;;;;;5074734;28;20120;-74
2022/11/23 01:59:56;;;;;;;3.40;3.10;;;9.70;99.90;;;;;;5067109;28;21045;-74
2022/11/23 02:02:25;;;;;;;6.45;3.15;;;9.70;99.90;;;;;;5072975;28;20397;-73
2022/11/23 02:04:54;;;;;;;4.75;2.80;;;9.70;99.90;;;;;;5064633;28;20071;-74
2022/11/23 02:07:22;;;;;;;5.57;3.25;;;9.70;99.90;;;;;;5075744;28;20031;-74
2022/11/23 02:09:49;;;;;;;5.78;2.85;;;9.70;99.90;;;;;;5059974;28;20040;-74
2022/11/23 02:12:15;;;;;;;6.43;3.22;;;9.70;99.90;;;;;;5074341;28;20389;-74
2022/11/23 02:14:41;;;;;;;4.03;2.88;;;9.80;99.90;;;;;;5072021;28;20032;-74
2022/11/23 02:17:07;;;;;;;3.30;2.80;;;9.80;99.90;;;;;;5073704;28;20104;-74
2022/11/23 02:20:02;;;;;;;4.40;2.72;;;9.80;99.90;;;;;;5072018;28;20058;-74
2022/11/23 02:22:43;;;;;;;3.35;2.65;;;9.80;99.90;;;;;;5085306;28;20032;-75
2022/11/23 02:25:35;;;;;;;4.88;3.15;;;9.80;99.90;;;;;;5071821;28;20048;-74
2022/11/23 02:28:01;;;;;;;6.22;3.08;;;9.80;99.90;;;;;;5054948;28;20041;-74
2022/11/23 02:30:29;;;;;;;4.13;3.40;;;9.80;99.90;;;;;;5070822;28;20032;-74
2022/11/23 02:32:55;;;;;;;4.70;2.90;;;9.80;99.90;;;;;;5073885;28;20028;-74
2022/11/23 02:35:21;;;;;;;5.50;2.70;;;9.80;99.90;;;;;;5075947;28;20068;-73
2022/11/23 02:37:48;;;;;;;3.53;2.65;;;9.90;99.90;;;;;;5067313;28;20070;-74
2022/11/23 02:40:35;;;;;;;8.98;2.72;;;10.00;99.90;;;;;;5070489;28;20029;-74
2022/11/23 02:43:02;;;;;;;3.45;2.30;;;10.10;99.90;;;;;;5064788;28;20021;-74
2022/11/23 02:45:38;;;;;;;5.70;2.47;;;10.00;99.90;;;;;;5069002;28;20512;-74
2022/11/23 02:48:04;;;;;;;5.97;2.75;;;10.00;99.90;;;;;;5073059;28;20033;-75
2022/11/23 02:50:31;;;;;;;6.25;2.95;;;10.00;99.90;;;;;;5064428;28;20033;-74
2022/11/23 02:52:56;;;;;;;5.70;2.75;;;9.90;99.90;;;;;;5072268;28;20501;-74
2022/11/23 02:55:22;;;;;;;7.10;2.83;;;9.90;99.90;;;;;;5065165;28;20044;-74
2022/11/23 02:57:48;;;;;;;5.70;2.47;;;9.90;99.90;;;;;;5071861;28;20021;-74
2022/11/23 03:00:15;;;;;;;4.22;3.05;;;9.90;99.90;;;;;;5062348;28;20024;-74
2022/11/23 03:02:41;;;;;;;6.40;3.13;;;9.90;99.90;;;;;;5070366;28;20102;-74
2022/11/23 03:05:07;;;;;;;9.30;2.90;;;9.90;99.90;;;;;;5064080;28;20021;-74
2022/11/23 03:07:33;;;;;;;6.15;2.90;;;9.90;99.90;;;;;;5068941;28;20083;-74
2022/11/23 03:09:59;;;;;;;3.10;2.40;;;9.90;99.90;;;;;;5059389;28;20029;-74
2022/11/23 03:12:25;;;;;;;5.47;2.65;;;9.90;99.90;;;;;;5070086;28;20108;-74
2022/11/23 03:14:51;;;;;;;9.77;2.95;;;9.90;99.90;;;;;;5070374;28;20040;-74
2022/11/23 03:17:17;;;;;;;7.70;2.58;;;9.90;99.90;;;;;;5073578;28;20020;-74
2022/11/23 03:19:42;;;;;;;6.47;2.45;;;9.90;99.90;;;;;;5071441;28;20374;-75
2022/11/23 03:22:08;;;;;;;3.42;2.50;;;9.90;99.90;;;;;;5075048;28;20028;-74
2022/11/23 03:24:34;;;;;;;3.50;2.83;;;10.00;99.90;;;;;;5065154;28;20059;-75
2022/11/23 03:27:00;;;;;;;4.50;2.60;;;9.90;99.90;;;;;;5087908;28;20111;-75
2022/11/23 03:29:26;;;;;;;3.60;2.63;;;9.90;99.90;;;;;;5068059;28;20033;-74
2022/11/23 03:31:53;;;;;;;7.07;2.58;;;9.90;99.90;;;;;;5068189;28;20559;-75
2022/11/23 03:34:19;;;;;;;4.00;2.42;;;9.90;99.90;;;;;;5067912;28;20033;-74
2022/11/23 03:36:45;;;;;;;4.20;2.80;;;10.00;99.90;;;;;;5073984;28;20031;-75
2022/11/23 03:39:11;;;;;;;6.80;3.10;;;10.00;99.90;;;;;;5071752;28;20020;-75
2022/11/23 03:41:36;;;;;;;4.05;2.50;;;10.00;99.90;;;;;;5069953;28;20052;-74
2022/11/23 03:44:03;;;;;;;5.07;2.58;;;10.00;99.90;;;;;;5070603;28;20382;-74
2022/11/23 03:46:28;;;;;;;4.68;2.50;;;10.00;99.90;;;;;;5071896;28;20029;-75
2022/11/23 03:48:54;;;;;;;4.00;2.45;;;10.10;99.90;;;;;;5070031;28;20039;-75
2022/11/23 03:51:20;;;;;;;5.22;2.30;;;10.10;99.90;;;;;;5073572;28;20028;-75
2022/11/23 03:53:46;;;;;;;3.65;2.42;;;10.10;99.90;;;;;;5067141;28;20025;-75
2022/11/23 03:56:12;;;;;;;5.95;2.70;;;10.10;99.90;;;;;;5070037;28;20519;-74
2022/11/23 03:58:38;;;;;;;4.05;2.53;;;10.10;99.90;;;;;;5069286;28;20041;-75
2022/11/23 04:01:04;;;;;;;3.85;2.30;;;10.10;99.90;;;;;;5067981;28;20017;-74
2022/11/23 04:03:29;;;;;;;4.07;2.47;;;10.00;99.90;;;;;;5067360;28;20029;-75
2022/11/23 04:05:55;;;;;;;6.10;2.60;;;10.10;99.90;;;;;;5065666;28;20059;-75
2022/11/23 04:08:21;;;;;;;3.80;2.95;;;10.10;99.90;;;;;;5067462;28;20032;-74
2022/11/23 04:10:47;;;;;;;5.30;2.60;;;10.10;99.90;;;;;;5064207;28;20073;-74
2022/11/23 04:13:13;;;;;;;6.60;3.00;;;10.10;99.90;;;;;;5056862;28;20040;-74
2022/11/23 04:15:39;;;;;;;8.98;2.70;;;10.10;99.90;;;;;;5068436;28;20029;-74
2022/11/23 04:18:04;;;;;;;7.63;2.20;;;10.10;99.90;;;;;;5062255;28;20047;-74
2022/11/23 04:20:30;;;;;;;4.18;2.30;;;10.10;99.90;;;;;;5073917;28;20024;-74
2022/11/23 04:22:56;;;;;;;6.15;2.40;;;10.10;99.90;;;;;;5073657;28;20028;-74
2022/11/23 04:25:22;;;;;;;2.83;2.40;;;10.10;99.90;;;;;;5077665;28;20132;-74
2022/11/23 04:27:48;;;;;;;7.10;2.70;;;10.10;99.90;;;;;;5075853;28;20082;-74
2022/11/23 04:30:14;;;;;;;2.45;2.15;;;10.10;99.90;;;;;;5078723;28;20044;-74
2022/11/23 04:32:40;;;;;;;7.13;2.50;;;10.10;99.90;;;;;;5078558;28;20021;-74
2022/11/23 04:35:06;;;;;;;4.05;2.20;;;10.10;99.90;;;;;;5070455;28;20595;-74
2022/11/23 04:37:31;;;;;;;3.50;2.40;;;10.10;99.90;;;;;;5077468;28;20056;-74
2022/11/23 04:39:57;;;;;;;7.32;2.50;;;10.10;99.90;;;;;;5072560;28;20036;-74
2022/11/23 04:42:23;;;;;;;4.63;2.40;;;10.10;99.90;;;;;;5070917;28;20036;-74
2022/11/23 04:44:49;;;;;;;8.02;2.58;;;10.10;99.90;;;;;;5070864;28;20104;-74
2022/11/23 04:47:14;;;;;;;7.60;3.78;;;10.10;99.90;;;;;;5066995;28;20029;-75
2022/11/23 04:49:40;;;;;;;7.32;3.25;;;10.10;99.90;;;;;;5066618;28;20519;-74
2022/11/23 04:52:06;;;;;;;9.52;2.55;;;10.10;99.90;;;;;;5067716;28;20056;-74
2022/11/23 04:54:32;;;;;;;4.38;2.65;;;10.10;99.90;;;;;;5071088;28;20021;-74
2022/11/23 04:56:58;;;;;;;4.57;2.35;;;10.10;99.90;;;;;;5066016;28;20233;-74
2022/11/23 04:59:24;;;;;;;3.38;2.53;;;10.10;99.90;;;;;;5066941;28;20029;-75
2022/11/23 05:01:51;;;;;;;5.30;2.33;;;10.10;99.90;;;;;;5076014;28;20032;-74
2022/11/23 05:04:18;;;;;;;4.25;2.67;;;10.10;99.90;;;;;;5072443;28;20044;-74
2022/11/23 05:06:44;;;;;;;2.90;2.10;;;10.10;99.90;;;;;;5074711;28;20564;-74
2022/11/23 05:09:11;;;;;;;3.45;2.70;;;10.10;99.90;;;;;;5070214;28;20036;-74
2022/11/23 05:11:36;;;;;;;3.15;2.25;;;10.10;99.90;;;;;;5076969;28;20067;-74
2022/11/23 05:14:02;;;;;;;4.05;2.30;;;10.10;99.90;;;;;;5061100;28;20061;-74
2022/11/23 05:16:28;;;;;;;4.07;2.60;;;10.10;99.90;;;;;;5071036;28;20028;-74
2022/11/23 05:18:54;;;;;;;4.63;2.42;;;10.10;99.90;;;;;;5070588;28;20021;-74
2022/11/23 05:21:20;;;;;;;2.80;2.20;;;10.10;99.90;;;;;;5069110;28;20020;-74
2022/11/23 05:23:46;;;;;;;2.55;2.35;;;10.10;99.90;;;;;;5068963;28;20024;-74
2022/11/23 05:26:12;;;;;;;6.72;2.63;;;10.10;99.90;;;;;;5066950;28;20076;-74
2022/11/23 05:28:37;;;;;;;5.07;3.00;;;10.10;99.90;;;;;;5072768;28;20494;-74
2022/11/23 05:31:04;;;;;;;3.40;2.70;;;10.10;99.90;;;;;;5078860;28;20504;-74
2022/11/23 05:33:30;;;;;;;4.05;2.60;;;10.20;99.90;;;;;;5067044;28;20056;-74
2022/11/23 05:35:56;;;;;;;5.22;2.58;;;10.20;99.90;;;;;;5076941;28;20020;-74
2022/11/23 05:38:21;;;;;;;3.72;2.45;;;10.10;99.90;;;;;;5072342;28;20052;-74
2022/11/23 05:40:47;;;;;;;6.72;2.45;;;10.10;99.90;;;;;;5073875;28;20539;-73
2022/11/23 05:43:13;;;;;;;6.22;2.25;;;10.20;99.90;;;;;;5067654;28;20032;-74
2022/11/23 05:45:39;;;;;;;4.10;2.38;;;10.20;99.90;;;;;;5072626;28;20153;-74
2022/11/23 05:48:05;;;;;;;4.68;3.15;;;10.10;99.90;;;;;;5074237;28;20061;-74
2022/11/23 05:50:31;;;;;;;3.30;2.30;;;10.20;99.90;;;;;;5066077;28;20123;-74
2022/11/23 05:52:58;;;;;;;2.75;2.40;;;10.10;99.90;;;;;;5073107;28;20454;-73
2022/11/23 05:55:24;;;;;;;4.93;2.95;;;10.20;99.90;;;;;;5064320;28;20021;-73
2022/11/23 05:57:51;;;;;;;5.65;2.60;;;10.20;99.90;;;;;;5072226;28;20108;-73
2022/11/23 06:00:18;;;;;;;4.05;2.50;;;10.20;99.90;;;;;;5061960;28;20033;-73
2022/11/23 06:02:43;;;;;;;3.35;2.40;;;10.20;99.90;;;;;;5071677;28;20027;-73
2022/11/23 06:05:10;;;;;;;3.50;2.30;;;10.20;99.90;;;;;;5061327;28;20100;-74
2022/11/23 06:07:36;;;;;;;3.42;2.58;;;10.20;99.90;;;;;;5070250;28;20448;-73
2022/11/23 06:10:04;;;;;;;9.13;3.78;;;10.10;99.90;;;;;;5073235;28;20078;-73
2022/11/23 06:12:30;;;;;;;22.58;4.07;;;10.20;99.90;;;;;;5073064;28;20029;-73
2022/11/23 06:14:55;;;;;;;6.28;2.92;;;10.20;99.90;;;;;;5073217;28;20046;-73
2022/11/23 06:17:21;;;;;;;3.28;2.50;;;10.20;99.90;;;;;;5060251;28;20024;-73
2022/11/23 06:19:47;;;;;;;3.65;2.80;;;10.20;99.90;;;;;;5068235;28;20108;-73
2022/11/23 06:22:14;;;;;;;9.85;3.72;;;10.20;99.90;;;;;;5063464;28;20143;-73
2022/11/23 06:24:40;;;;;;;7.55;3.90;;;10.20;99.90;;;;;;5065640;28;20116;-73
2022/11/23 06:27:06;;;;;;;5.72;4.07;;;10.20;99.90;;;;;;5072830;28;20116;-73
2022/11/23 06:29:32;;;;;;;9.13;4.38;;;10.20;99.90;;;;;;5068208;28;20053;-73
2022/11/23 06:31:57;;;;;;;7.40;4.75;;;10.20;99.90;;;;;;5072300;28;20029;-73
2022/11/23 06:34:23;;;;;;;7.63;4.70;;;10.20;99.90;;;;;;5067952;28;20021;-73
2022/11/23 06:36:49;;;;;;;8.10;4.72;;;10.20;99.90;;;;;;5071484;28;20040;-73
2022/11/23 06:39:15;;;;;;;7.75;4.88;;;10.20;99.90;;;;;;5070707;28;20024;-73
2022/11/23 06:41:41;;;;;;;8.77;6.10;;;10.20;99.90;;;;;;5069482;28;20131;-73
2022/11/23 06:44:06;;;;;;;10.90;5.60;;;10.20;99.90;;;;;;5064672;28;20047;-73
2022/11/23 06:46:32;;;;;;;8.48;5.47;;;10.20;99.90;;;;;;5068511;28;20420;-73
2022/11/23 06:48:58;;;;;;;10.75;6.55;;;10.20;99.90;;;;;;5065774;28;20571;-73
2022/11/23 06:51:24;;;;;;;9.00;5.82;;;10.20;99.90;;;;;;5067554;28;20035;-73
2022/11/23 06:53:50;;;;;;;7.32;5.55;;;10.20;99.90;;;;;;5062630;28;20053;-73
2022/11/23 06:56:16;;;;;;;10.98;6.70;;;10.20;99.90;;;;;;5071463;28;20104;-73
2022/11/23 06:58:41;;;;;;;11.90;7.07;;;10.20;99.90;;;;;;5070412;28;20021;-73
2022/11/23 07:01:08;;;;;;;9.45;7.10;;;10.20;99.90;;;;;;5069691;28;20484;-73
2022/11/23 07:03:35;;;;;;;12.23;7.28;;;10.20;99.90;;;;;;5068229;28;20043;-73
2022/11/23 07:06:08;;;;;;;10.77;7.63;;;10.20;99.90;;;;;;5067807;28;20103;-73
2022/11/23 07:08:38;;;;;;;14.35;9.55;;;10.20;99.90;;;;;;5070021;28;20060;-73
2022/11/23 07:11:05;;;;;;;13.97;9.13;;;10.20;99.90;;;;;;5067823;28;20030;-74
2022/11/23 07:13:32;;;;;;;10.80;8.90;;;10.20;99.90;;;;;;5065692;28;20024;-73
2022/11/23 07:15:58;;;;;;;12.40;8.45;;;10.20;99.90;;;;;;5067766;28;20495;-73
2022/11/23 07:18:24;;;;;;;8.98;7.53;;;10.30;99.90;;;;;;5062394;28;20025;-74
2022/11/23 07:20:50;;;;;;;11.52;7.28;;;10.30;99.90;;;;;;5073358;28;20047;-73
2022/11/23 07:23:16;;;;;;;8.52;6.25;;;10.30;99.90;;;;;;5066053;28;20028;-73
2022/11/23 07:25:42;;;;;;;7.38;6.00;;;10.30;99.90;;;;;;5066431;28;20049;-74
2022/11/23 07:28:11;;;;;;;7.70;6.72;;;10.30;99.90;;;;;;5059213;28;20442;-73
2022/11/23 07:30:37;;;;;;;8.05;7.25;;;10.30;99.90;;;;;;5067639;28;20056;-75
2022/11/23 07:33:09;;;;;;;9.30;7.25;;;10.30;99.90;;;;;;5068108;28;20114;-74
2022/11/23 07:35:37;;;;;;;9.90;8.02;;;10.30;99.90;;;;;;5062636;28;20047;-75
2022/11/23 07:38:03;;;;;;;12.18;8.73;;;10.30;99.90;;;;;;5066774;28;20029;-74
2022/11/23 07:40:29;;;;;;;15.82;11.23;;;10.30;99.90;;;;;;5072578;28;20055;-74
2022/11/23 07:43:03;;;;;;;17.63;11.32;;;10.40;99.90;;;;;;5064733;28;20036;-74
2022/11/23 07:45:29;;;;;;;16.42;11.20;;;10.40;99.90;;;;;;5061318;28;20029;-74
2022/11/23 07:47:58;;;;;;;13.70;10.57;;;10.40;99.90;;;;;;5064651;28;20115;-75
2022/11/23 07:50:24;;;;;;;12.90;10.45;;;10.40;99.90;;;;;;5065740;28;20025;-74
2022/11/23 07:52:50;;;;;;;18.50;13.00;;;10.50;99.90;;;;;;5072174;28;20024;-74
2022/11/23 07:55:16;;;;;;;10.68;8.30;;;10.40;99.90;;;;;;5069425;28;20024;-74
2022/11/23 07:57:42;;;;;;;8.18;6.70;;;10.50;99.90;;;;;;5059893;28;20512;-74
2022/11/23 08:00:08;;;;;;;38.72;17.02;;;10.50;99.90;;;;;;5066273;28;20022;-74
2022/11/23 08:02:34;;;;;;;165.25;103.85;;;10.50;99.90;;;;;;5071586;28;20060;-73
2022/11/23 08:05:00;;;;;;;7.07;5.85;;;10.50;99.90;;;;;;5060794;28;20485;-74
2022/11/23 08:07:26;;;;;;;6.07;4.80;;;10.50;99.90;;;;;;5068605;28;20029;-73
2022/11/23 08:09:52;;;;;;;5.00;4.45;;;10.60;99.90;;;;;;5068886;28;20024;-74
2022/11/23 08:12:17;;;;;;;4.07;3.67;;;10.60;99.90;;;;;;5068640;28;20040;-74
2022/11/23 08:14:43;;;;;;;6.38;4.70;;;10.60;99.90;;;;;;5068078;28;20055;-74
2022/11/23 08:17:09;;;;;;;5.90;4.20;;;10.60;99.90;;;;;;5062003;28;20028;-74
2022/11/23 08:19:35;;;;;;;15.10;7.93;;;10.60;99.90;;;;;;5071099;28;20028;-74
2022/11/23 08:22:01;;;;;;;4.60;3.30;;;10.60;99.90;;;;;;5066705;28;20048;-74
2022/11/23 08:24:26;;;;;;;7.32;4.50;;;10.60;99.90;;;;;;5065538;28;20040;-72
2022/11/23 08:26:52;;;;;;;474.50;156.48;;;10.60;99.90;;;;;;5067281;28;20029;-73
2022/11/23 08:29:18;;;;;;;16.80;7.45;;;10.70;99.90;;;;;;5065169;28;20033;-73
2022/11/23 08:31:44;;;;;;;21.52;8.27;;;10.70;99.90;;;;;;5063994;28;20033;-73
2022/11/23 08:34:10;;;;;;;7.18;4.63;;;10.70;99.90;;;;;;5063575;28;20025;-73
2022/11/23 08:36:36;;;;;;;7.28;5.05;;;10.70;99.90;;;;;;5067677;28;20464;-73
2022/11/23 08:39:02;;;;;;;12.80;5.93;;;10.70;99.90;;;;;;5066085;28;20457;-73
2022/11/23 08:41:28;;;;;;;17.35;8.23;;;10.80;99.90;;;;;;5071793;28;20025;-73
2022/11/23 08:43:54;;;;;;;31.02;11.38;;;10.80;99.90;;;;;;5067543;28;20017;-74
2022/11/23 08:46:20;;;;;;;16.50;6.82;;;10.80;99.90;;;;;;5064785;28;20029;-73
2022/11/23 08:48:52;;;;;;;9.25;5.20;;;10.90;99.90;;;;;;5070689;28;20027;-74
2022/11/23 08:51:21;;;;;;;5.70;4.88;;;10.90;99.90;;;;;;5069839;28;20048;-74
2022/11/23 08:53:48;;;;;;;6.85;4.78;;;11.00;99.90;;;;;;5068668;28;20037;-74
2022/11/23 08:56:14;;;;;;;9.55;5.45;;;11.00;99.90;;;;;;5074650;28;20023;-74
2022/11/23 08:58:39;;;;;;;7.57;4.95;;;11.10;99.90;;;;;;5066052;28;20108;-74
2022/11/23 09:01:13;;;;;;;9.48;6.47;;;11.10;99.90;;;;;;5069068;28;20024;-74
2022/11/23 09:03:40;;;;;;;7.13;4.53;;;11.10;99.90;;;;;;5062732;28;20033;-74
2022/11/23 09:06:06;;;;;;;7.63;4.43;;;11.10;99.90;;;;;;5080059;28;20028;-74
2022/11/23 09:08:32;;;;;;;5.20;4.20;;;11.10;99.90;;;;;;5070407;28;20029;-74
2022/11/23 09:11:03;;;;;;;4.97;4.28;;;11.20;99.90;;;;;;5091517;28;20044;-74
2022/11/23 09:13:29;;;;;;;7.78;4.53;;;11.20;99.90;;;;;;5067342;28;20033;-74
2022/11/23 09:15:57;;;;;;;24.55;15.50;;;11.30;99.90;;;;;;5075383;28;20361;-74
2022/11/23 09:18:24;;;;;;;5.85;4.18;;;11.40;99.90;;;;;;5068259;28;20067;-74
2022/11/23 09:20:49;;;;;;;7.07;3.85;;;11.50;99.90;;;;;;5067248;28;20020;-75
2022/11/23 09:23:15;;;;;;;6.70;3.60;;;11.50;99.90;;;;;;5077188;28;20029;-75
2022/11/23 09:25:42;;;;;;;7.25;4.95;;;11.60;99.90;;;;;;5068894;28;20051;-75
2022/11/23 09:28:08;;;;;;;3.50;2.95;;;11.70;99.90;;;;;;5066486;28;20085;-75
2022/11/23 09:30:34;;;;;;;5.63;3.00;;;11.80;99.90;;;;;;5069384;28;20477;-75
2022/11/23 09:32:59;;;;;;;2.97;2.67;;;11.90;99.90;;;;;;5075724;28;20055;-75
2022/11/23 09:35:26;;;;;;;7.80;5.22;;;12.00;99.90;;;;;;5069045;28;20548;-73
2022/11/23 09:37:57;;;;;;;11.82;4.03;;;12.10;99.90;;;;;;5069600;28;20489;-74
2022/11/23 09:40:30;;;;;;;4.10;2.55;;;12.10;99.90;;;;;;5072943;28;20377;-75
2022/11/23 09:43:32;;;;;;;3.38;2.28;;;12.30;99.90;;;;;;5075532;28;20035;-75
2022/11/23 09:46:09;;;;;;;4.47;2.20;;;12.30;99.90;;;;;;5066424;28;20063;-75
2022/11/23 09:48:43;;;;;;;3.15;2.40;;;12.50;99.90;;;;;;5064678;28;20063;-75
2022/11/23 09:51:16;;;;;;;2.03;1.83;;;12.50;99.90;;;;;;5077477;28;20020;-76
2022/11/23 09:53:49;;;;;;;2.13;1.92;;;12.60;99.90;;;;;;5069799;28;20029;-76
2022/11/23 09:56:26;;;;;;;3.00;2.30;;;12.60;99.90;;;;;;5077200;28;20078;-76
2022/11/23 09:58:55;;;;;;;4.22;2.03;;;12.70;99.90;;;;;;5060826;28;20493;-75
2022/11/23 10:01:21;;;;;;;3.88;2.88;;;12.80;99.90;;;;;;5064168;28;20025;-76
2022/11/23 10:03:47;;;;;;;2.28;1.88;;;12.90;99.90;;;;;;5069893;28;20032;-75
2022/11/23 10:06:22;;;;;;;2.92;2.22;;;13.00;99.90;;;;;;5069950;28;20104;-75
2022/11/23 10:08:57;;;;;;;3.67;2.40;;;13.10;99.90;;;;;;5065936;28;20056;-75
2022/11/23 10:11:23;;;;;;;2.78;2.28;;;13.20;99.90;;;;;;5077254;28;20082;-76
2022/11/23 10:14:25;;;;;;;2.28;1.92;;;13.20;99.90;;;;;;5068050;28;20033;-75
2022/11/23 10:17:12;;;;;;;2.33;2.00;;;13.40;99.90;;;;;;5074464;28;20032;-75
2022/11/23 10:19:56;;;;;;;3.38;2.38;;;13.60;99.90;;;;;;5065142;28;20040;-75
2022/11/23 10:22:42;;;;;;;1.65;1.55;;;13.70;99.90;;;;;;5066629;28;20032;-75
2022/11/23 10:25:20;;;;;;;2.92;2.15;;;13.80;99.90;;;;;;5067872;28;20062;-76
2022/11/23 10:27:49;;;;;;;3.15;2.00;;;13.90;99.90;;;;;;5066548;28;20029;-76
2022/11/23 10:30:17;;;;;;;1.90;1.60;;;13.90;99.90;;;;;;5068059;28;20078;-77
2022/11/23 10:33:18;;;;;;;2.97;1.75;;;13.90;99.90;;;;;;5075095;28;20561;-76
2022/11/23 10:35:43;;;;;;;2.28;1.85;;;13.90;99.90;;;;;;5059978;28;20477;-75
2022/11/23 10:38:15;;;;;;;4.80;2.00;;;13.80;99.90;;;;;;5085286;28;20094;-74
2022/11/23 10:41:02;;;;;;;5.82;2.40;;;13.90;99.90;;;;;;5070621;28;20016;-75
2022/11/23 10:43:38;;;;;;;5.82;2.13;;;14.00;99.90;;;;;;5063772;28;20033;-75
2022/11/23 10:46:30;;;;;;;5.72;2.83;;;14.10;99.90;;;;;;5062351;28;20111;-75
2022/11/23 10:49:21;;;;;;;8.75;2.92;;;14.30;99.90;;;;;;5070531;28;20020;-75
2022/11/23 10:51:54;;;;;;;9.18;2.60;;;14.40;99.90;;;;;;5062786;28;20033;-76
2022/11/23 10:54:33;;;;;;;8.27;3.67;;;14.50;99.90;;;;;;5068653;28;20131;-76
2022/11/23 10:57:01;;;;;;;7.95;2.88;;;14.60;99.90;;;;;;5067535;28;20881;-75
2022/11/23 10:59:27;;;;;;;15.45;3.30;;;14.80;99.90;;;;;;5064906;28;20032;-76
2022/11/23 11:02:18;;;;;;;5.63;2.55;;;14.90;99.90;;;;;;5067471;28;20024;-79
2022/11/23 11:04:46;;;;;;;7.15;2.95;;;14.90;99.90;;;;;;5071043;28;20455;-78
2022/11/23 11:07:28;;;;;;;13.23;3.15;;;15.10;99.90;;;;;;5089935;28;20028;-79
2022/11/23 11:09:56;;;;;;;15.80;3.70;;;15.10;99.90;;;;;;5070522;28;20388;-77
2022/11/23 11:12:22;;;;;;;13.57;3.65;;;15.10;99.90;;;;;;5074045;28;20024;-77
2022/11/23 11:15:20;;;;;;;13.75;3.38;;;15.20;99.90;;;;;;5073755;28;20052;-79
2022/11/23 11:17:55;;;;;;;11.82;3.15;;;15.10;99.90;;;;;;5062852;28;20016;-80
2022/11/23 11:20:32;;;;;;;15.57;3.33;;;15.00;99.90;;;;;;5059223;28;20017;-80
2022/11/23 11:23:19;;;;;;;16.75;3.72;;;15.10;99.90;;;;;;5069446;28;20028;-79
2022/11/23 11:25:46;;;;;;;17.17;3.65;;;15.00;99.90;;;;;;5072323;28;20128;-79
2022/11/23 11:28:47;;;;;;;15.77;3.55;;;15.10;99.90;;;;;;5067563;28;20443;-78
2022/11/23 11:31:19;;;;;;;;;;;15.20;99.90;;;;;;5068861;28;20118;-77
2022/11/23 11:34:03;;;;;;;10.95;2.70;;;15.20;99.90;;;;;;5072587;28;19912;-78
2022/11/23 11:36:36;;;;;;;15.27;5.13;;;15.30;99.90;;;;;;5072118;28;20079;-79
2022/11/23 11:39:09;;;;;;;18.60;4.90;;;15.40;99.90;;;;;;5064062;28;20107;-78
2022/11/23 11:41:37;;;;;;;14.82;3.15;;;15.40;99.90;;;;;;5068375;28;20388;-76
2022/11/23 11:44:19;;;;;;;17.63;3.75;;;15.40;99.90;;;;;;5062014;28;20435;-78
2022/11/23 11:46:53;;;;;;;13.68;3.17;;;15.40;99.90;;;;;;5064325;28;20052;-80
2022/11/23 11:49:30;;;;;;;13.15;3.65;;;15.40;99.90;;;;;;5066753;28;20036;-80
2022/11/23 11:52:10;;;;;;;11.27;3.90;;;15.60;99.90;;;;;;5065581;28;20051;-80
2022/11/23 11:55:00;;;;;;;16.38;3.92;;;15.60;99.90;;;;;;5062126;28;20428;-79
2022/11/23 11:57:40;;;;;;;11.93;3.77;;;15.60;99.90;;;;;;5065917;28;20017;-78
2022/11/23 12:00:13;;;;;;;14.02;3.80;;;15.70;99.90;;;;;;5065804;28;20413;-79
2022/11/23 12:03:03;;;;;;;11.55;3.20;;;15.80;99.90;;;;;;5070314;28;20042;-78
2022/11/23 12:05:45;;;;;;;19.85;5.05;;;15.90;99.90;;;;;;5084497;28;20039;-78
2022/11/23 12:08:17;;;;;;;10.15;3.20;;;16.00;99.90;;;;;;5073502;28;20040;-80
2022/11/23 12:11:01;;;;;;;10.82;3.35;;;16.00;99.90;;;;;;5086308;28;20449;-79
2022/11/23 12:13:37;;;;;;;18.75;3.63;;;16.00;99.90;;;;;;5063018;28;20125;-80
2022/11/23 12:16:38;;;;;;;18.70;4.35;;;16.00;99.90;;;;;;5067019;28;20044;-79
2022/11/23 12:19:18;;;;;;;21.65;5.18;;;16.10;99.90;;;;;;5045120;28;20132;-79
2022/11/23 12:22:05;;;;;;;21.93;5.00;;;16.30;99.90;;;;;;5065009;28;20045;-80
2022/11/23 12:24:58;;;;;;;19.88;5.05;;;16.40;99.90;;;;;;5080713;28;20042;-79
2022/11/23 12:27:57;;;;;;;16.80;4.50;;;16.50;99.90;;;;;;5065871;28;20032;-79
2022/11/23 12:30:35;;;;;;;18.23;4.10;;;16.50;99.90;;;;;;5062433;28;20040;-78
2022/11/23 12:33:18;;;;;;;18.15;3.90;;;16.40;99.90;;;;;;5072567;28;20039;-79
2022/11/23 12:36:08;;;;;;;25.02;5.07;;;16.40;99.90;;;;;;5071073;28;20020;-78
2022/11/23 12:38:51;;;;;;;21.75;4.20;;;16.30;99.90;;;;;;5062475;28;20025;-79
2022/11/23 12:41:29;;;;;;;25.88;5.47;;;16.20;99.90;;;;;;5072082;28;20055;-80
2022/11/23 12:44:16;;;;;;;11.18;3.35;;;16.00;99.90;;;;;;5063944;28;20389;-79
2022/11/23 12:47:06;;;;;;;14.98;3.90;;;16.00;99.90;;;;;;5066297;28;20058;-80
2022/11/23 12:49:38;;;;;;;14.50;4.40;;;16.10;99.90;;;;;;5069999;28;20031;-79
2022/11/23 12:52:28;;;;;;;21.30;5.13;;;16.10;99.90;;;;;;5072659;28;20043;-79
2022/11/23 12:55:06;;;;;;;17.33;4.28;;;16.00;99.90;;;;;;5066276;28;20029;-79
2022/11/23 12:58:01;;;;;;;20.02;4.65;;;15.90;99.90;;;;;;5072996;28;20024;-79
2022/11/23 13:00:35;;;;;;;16.42;5.82;;;15.80;99.90;;;;;;5066083;28;20041;-79